Ios, Greece
Current Conditions -  °F | °C
As of 6:50 PM on Saturday 25 Oct 2014 (Local Time) from LGSR Reporting Station
Broken Clouds Broken Clouds  
Wind Chill: 68°   Ceiling: 2500
Heat Index: 68°   Visibility: 6mi
Dew Point: 54°   Wind: 17mph
Humidity: 60%   Direction: 260°W
Pressure: 29.85"   Gusts: NA
Location:  36.73°N, 25.28°E
Report Text: LGSR 251550Z 26015KT 9999 BKN025 SCT080 20/12 Q1011
Loading
Personal Weather Stations






























Interactive Weather Map
Tropical Storm Tracking
New forecast layout! Learn more

10-Day Weather Forecast

Advertisements
Track Severe Weather on mobile